sensor_id;sensor_type;location;lat;lon;timestamp;P1;durP1;ratioP1;P2;durP2;ratioP2
64244;SDS011;50584;29.058;-110.966;2023-03-14T00:02:22;3.35;;;1.30;;
64244;SDS011;50584;29.058;-110.966;2023-03-14T00:04:48;13.13;;;1.08;;
64244;SDS011;50584;29.058;-110.966;2023-03-14T00:07:14;2.25;;;1.35;;
64244;SDS011;50584;29.058;-110.966;2023-03-14T00:09:39;3.30;;;1.10;;
64244;SDS011;50584;29.058;-110.966;2023-03-14T00:12:05;3.83;;;0.90;;
64244;SDS011;50584;29.058;-110.966;2023-03-14T00:14:32;5.53;;;1.65;;
64244;SDS011;50584;29.058;-110.966;2023-03-14T00:16:58;7.05;;;0.80;;
64244;SDS011;50584;29.058;-110.966;2023-03-14T00:19:24;3.00;;;0.90;;
64244;SDS011;50584;29.058;-110.966;2023-03-14T00:21:50;4.20;;;1.60;;
64244;SDS011;50584;29.058;-110.966;2023-03-14T00:24:16;3.15;;;1.30;;
64244;SDS011;50584;29.058;-110.966;2023-03-14T00:26:41;2.92;;;1.20;;
64244;SDS011;50584;29.058;-110.966;2023-03-14T00:29:07;11.57;;;1.00;;
64244;SDS011;50584;29.058;-110.966;2023-03-14T00:31:33;11.50;;;1.17;;
64244;SDS011;50584;29.058;-110.966;2023-03-14T00:34:01;9.38;;;1.35;;
64244;SDS011;50584;29.058;-110.966;2023-03-14T00:36:26;10.20;;;1.75;;
64244;SDS011;50584;29.058;-110.966;2023-03-14T00:38:52;6.50;;;1.33;;
64244;SDS011;50584;29.058;-110.966;2023-03-14T00:41:21;15.43;;;1.25;;
64244;SDS011;50584;29.058;-110.966;2023-03-14T00:43:48;6.32;;;1.10;;
64244;SDS011;50584;29.058;-110.966;2023-03-14T00:46:13;2.60;;;0.90;;
64244;SDS011;50584;29.058;-110.966;2023-03-14T00:48:39;7.15;;;1.50;;
64244;SDS011;50584;29.058;-110.966;2023-03-14T00:51:06;5.57;;;1.10;;
64244;SDS011;50584;29.058;-110.966;2023-03-14T00:53:35;1.40;;;0.90;;
64244;SDS011;50584;29.058;-110.966;2023-03-14T00:56:04;4.13;;;0.82;;
64244;SDS011;50584;29.058;-110.966;2023-03-14T00:58:30;4.20;;;1.30;;
64244;SDS011;50584;29.058;-110.966;2023-03-14T01:00:56;1.17;;;1.13;;
64244;SDS011;50584;29.058;-110.966;2023-03-14T01:03:21;4.53;;;1.20;;
64244;SDS011;50584;29.058;-110.966;2023-03-14T01:05:49;17.58;;;2.15;;
64244;SDS011;50584;29.058;-110.966;2023-03-14T01:08:15;7.75;;;0.98;;
64244;SDS011;50584;29.058;-110.966;2023-03-14T01:10:41;2.00;;;0.90;;
64244;SDS011;50584;29.058;-110.966;2023-03-14T01:13:08;4.85;;;1.20;;
64244;SDS011;50584;29.058;-110.966;2023-03-14T01:15:34;5.88;;;1.23;;
64244;SDS011;50584;29.058;-110.966;2023-03-14T01:18:00;11.52;;;1.10;;
64244;SDS011;50584;29.058;-110.966;2023-03-14T01:20:26;5.75;;;1.27;;
64244;SDS011;50584;29.058;-110.966;2023-03-14T01:22:52;2.95;;;0.98;;
64244;SDS011;50584;29.058;-110.966;2023-03-14T01:25:17;3.20;;;1.00;;
64244;SDS011;50584;29.058;-110.966;2023-03-14T01:27:44;1.30;;;1.00;;
64244;SDS011;50584;29.058;-110.966;2023-03-14T01:30:10;3.30;;;1.00;;
64244;SDS011;50584;29.058;-110.966;2023-03-14T01:32:37;6.53;;;1.35;;
64244;SDS011;50584;29.058;-110.966;2023-03-14T01:35:03;3.47;;;0.98;;
64244;SDS011;50584;29.058;-110.966;2023-03-14T01:37:29;3.90;;;0.90;;
64244;SDS011;50584;29.058;-110.966;2023-03-14T01:39:55;5.63;;;1.10;;
64244;SDS011;50584;29.058;-110.966;2023-03-14T01:42:21;4.53;;;1.25;;
64244;SDS011;50584;29.058;-110.966;2023-03-14T01:44:51;2.13;;;0.90;;
64244;SDS011;50584;29.058;-110.966;2023-03-14T01:47:17;5.53;;;1.27;;
64244;SDS011;50584;29.058;-110.966;2023-03-14T01:49:43;3.67;;;1.27;;
64244;SDS011;50584;29.058;-110.966;2023-03-14T01:52:16;2.78;;;0.93;;
64244;SDS011;50584;29.058;-110.966;2023-03-14T01:54:46;10.40;;;1.00;;
64244;SDS011;50584;29.058;-110.966;2023-03-14T01:59:46;4.97;;;1.92;;
64244;SDS011;50584;29.058;-110.966;2023-03-14T02:02:13;1.08;;;0.85;;
64244;SDS011;50584;29.058;-110.966;2023-03-14T02:04:39;3.08;;;0.95;;
64244;SDS011;50584;29.058;-110.966;2023-03-14T02:07:26;5.72;;;1.52;;
64244;SDS011;50584;29.058;-110.966;2023-03-14T02:09:56;22.48;;;2.53;;
64244;SDS011;50584;29.058;-110.966;2023-03-14T02:12:23;2.05;;;1.30;;
64244;SDS011;50584;29.058;-110.966;2023-03-14T02:14:49;3.55;;;1.23;;
64244;SDS011;50584;29.058;-110.966;2023-03-14T02:17:15;4.65;;;1.35;;
64244;SDS011;50584;29.058;-110.966;2023-03-14T02:22:19;1.15;;;1.00;;
64244;SDS011;50584;29.058;-110.966;2023-03-14T02:24:47;2.45;;;1.20;;
64244;SDS011;50584;29.058;-110.966;2023-03-14T02:27:14;2.72;;;0.90;;
64244;SDS011;50584;29.058;-110.966;2023-03-14T02:29:43;2.03;;;1.05;;
64244;SDS011;50584;29.058;-110.966;2023-03-14T02:32:10;2.85;;;1.55;;
64244;SDS011;50584;29.058;-110.966;2023-03-14T02:34:37;8.35;;;1.20;;
64244;SDS011;50584;29.058;-110.966;2023-03-14T02:37:03;2.00;;;0.98;;
64244;SDS011;50584;29.058;-110.966;2023-03-14T02:39:36;6.88;;;1.70;;
64244;SDS011;50584;29.058;-110.966;2023-03-14T02:42:03;8.35;;;1.20;;
64244;SDS011;50584;29.058;-110.966;2023-03-14T02:44:29;2.15;;;0.98;;
64244;SDS011;50584;29.058;-110.966;2023-03-14T02:46:55;4.22;;;1.75;;
64244;SDS011;50584;29.058;-110.966;2023-03-14T02:49:21;10.52;;;1.30;;
64244;SDS011;50584;29.058;-110.966;2023-03-14T02:51:47;8.07;;;1.40;;
64244;SDS011;50584;29.058;-110.966;2023-03-14T02:54:14;6.00;;;1.00;;
64244;SDS011;50584;29.058;-110.966;2023-03-14T02:56:40;4.03;;;1.00;;
64244;SDS011;50584;29.058;-110.966;2023-03-14T02:59:06;5.40;;;1.25;;
64244;SDS011;50584;29.058;-110.966;2023-03-14T03:01:33;3.15;;;0.80;;
64244;SDS011;50584;29.058;-110.966;2023-03-14T03:03:58;2.15;;;1.00;;
64244;SDS011;50584;29.058;-110.966;2023-03-14T03:06:24;3.88;;;1.02;;
64244;SDS011;50584;29.058;-110.966;2023-03-14T03:08:50;3.50;;;1.05;;
64244;SDS011;50584;29.058;-110.966;2023-03-14T03:11:16;5.63;;;1.10;;
64244;SDS011;50584;29.058;-110.966;2023-03-14T03:13:41;1.95;;;1.15;;
64244;SDS011;50584;29.058;-110.966;2023-03-14T03:16:07;4.10;;;1.17;;
64244;SDS011;50584;29.058;-110.966;2023-03-14T03:18:33;7.65;;;1.23;;
64244;SDS011;50584;29.058;-110.966;2023-03-14T03:21:00;4.32;;;1.20;;
64244;SDS011;50584;29.058;-110.966;2023-03-14T03:23:25;4.65;;;1.50;;
64244;SDS011;50584;29.058;-110.966;2023-03-14T03:25:51;13.23;;;1.20;;
64244;SDS011;50584;29.058;-110.966;2023-03-14T03:28:17;7.28;;;1.27;;
64244;SDS011;50584;29.058;-110.966;2023-03-14T03:30:43;5.25;;;1.02;;
64244;SDS011;50584;29.058;-110.966;2023-03-14T03:33:10;3.70;;;1.20;;
64244;SDS011;50584;29.058;-110.966;2023-03-14T03:35:46;9.07;;;1.30;;
64244;SDS011;50584;29.058;-110.966;2023-03-14T03:38:12;9.25;;;1.50;;
64244;SDS011;50584;29.058;-110.966;2023-03-14T03:40:38;14.05;;;1.63;;
64244;SDS011;50584;29.058;-110.966;2023-03-14T03:43:04;26.98;;;2.15;;
64244;SDS011;50584;29.058;-110.966;2023-03-14T03:45:30;7.25;;;1.85;;
64244;SDS011;50584;29.058;-110.966;2023-03-14T03:47:55;5.03;;;1.95;;
64244;SDS011;50584;29.058;-110.966;2023-03-14T03:50:21;9.13;;;2.17;;
64244;SDS011;50584;29.058;-110.966;2023-03-14T03:52:47;11.35;;;1.90;;
64244;SDS011;50584;29.058;-110.966;2023-03-14T03:55:13;13.60;;;1.88;;
64244;SDS011;50584;29.058;-110.966;2023-03-14T03:57:39;15.55;;;3.08;;
64244;SDS011;50584;29.058;-110.966;2023-03-14T04:00:05;8.82;;;4.20;;
64244;SDS011;50584;29.058;-110.966;2023-03-14T04:02:31;9.80;;;2.75;;
64244;SDS011;50584;29.058;-110.966;2023-03-14T04:04:57;15.50;;;2.90;;
64244;SDS011;50584;29.058;-110.966;2023-03-14T04:07:23;15.48;;;3.22;;
64244;SDS011;50584;29.058;-110.966;2023-03-14T04:09:48;24.60;;;3.00;;
64244;SDS011;50584;29.058;-110.966;2023-03-14T04:12:14;19.45;;;3.55;;
64244;SDS011;50584;29.058;-110.966;2023-03-14T04:14:40;20.02;;;3.42;;
64244;SDS011;50584;29.058;-110.966;2023-03-14T04:17:06;12.48;;;2.75;;
64244;SDS011;50584;29.058;-110.966;2023-03-14T04:19:32;8.75;;;2.10;;
64244;SDS011;50584;29.058;-110.966;2023-03-14T04:21:58;8.48;;;2.40;;
64244;SDS011;50584;29.058;-110.966;2023-03-14T04:24:23;3.97;;;1.90;;
64244;SDS011;50584;29.058;-110.966;2023-03-14T04:26:49;8.93;;;2.22;;
64244;SDS011;50584;29.058;-110.966;2023-03-14T04:29:15;3.53;;;1.77;;
64244;SDS011;50584;29.058;-110.966;2023-03-14T04:31:41;13.02;;;1.80;;
64244;SDS011;50584;29.058;-110.966;2023-03-14T04:34:07;4.32;;;1.58;;
64244;SDS011;50584;29.058;-110.966;2023-03-14T04:36:32;8.60;;;1.50;;
64244;SDS011;50584;29.058;-110.966;2023-03-14T04:38:58;8.98;;;1.63;;
64244;SDS011;50584;29.058;-110.966;2023-03-14T04:41:24;8.38;;;1.52;;
64244;SDS011;50584;29.058;-110.966;2023-03-14T04:43:50;6.60;;;1.90;;
64244;SDS011;50584;29.058;-110.966;2023-03-14T04:46:16;2.00;;;1.50;;
64244;SDS011;50584;29.058;-110.966;2023-03-14T04:48:42;10.40;;;1.70;;
64244;SDS011;50584;29.058;-110.966;2023-03-14T04:51:07;4.97;;;1.80;;
64244;SDS011;50584;29.058;-110.966;2023-03-14T04:53:33;8.27;;;1.85;;
64244;SDS011;50584;29.058;-110.966;2023-03-14T04:56:00;4.07;;;1.80;;
64244;SDS011;50584;29.058;-110.966;2023-03-14T04:58:26;3.58;;;1.73;;
64244;SDS011;50584;29.058;-110.966;2023-03-14T05:00:52;7.82;;;1.80;;
64244;SDS011;50584;29.058;-110.966;2023-03-14T05:03:18;9.32;;;1.70;;
64244;SDS011;50584;29.058;-110.966;2023-03-14T05:05:44;7.63;;;1.63;;
64244;SDS011;50584;29.058;-110.966;2023-03-14T05:08:10;5.28;;;1.60;;
64244;SDS011;50584;29.058;-110.966;2023-03-14T05:10:36;4.75;;;1.58;;
64244;SDS011;50584;29.058;-110.966;2023-03-14T05:13:02;4.00;;;1.90;;
64244;SDS011;50584;29.058;-110.966;2023-03-14T05:15:28;4.75;;;1.52;;
64244;SDS011;50584;29.058;-110.966;2023-03-14T05:17:54;9.55;;;1.88;;
64244;SDS011;50584;29.058;-110.966;2023-03-14T05:20:20;9.70;;;1.85;;
64244;SDS011;50584;29.058;-110.966;2023-03-14T05:22:46;7.57;;;1.75;;
64244;SDS011;50584;29.058;-110.966;2023-03-14T05:25:12;3.55;;;2.00;;
64244;SDS011;50584;29.058;-110.966;2023-03-14T05:27:38;4.82;;;1.80;;
64244;SDS011;50584;29.058;-110.966;2023-03-14T05:30:04;6.55;;;2.20;;
64244;SDS011;50584;29.058;-110.966;2023-03-14T05:32:30;7.72;;;2.10;;
64244;SDS011;50584;29.058;-110.966;2023-03-14T05:34:56;6.75;;;2.13;;
64244;SDS011;50584;29.058;-110.966;2023-03-14T05:37:27;7.93;;;2.05;;
64244;SDS011;50584;29.058;-110.966;2023-03-14T05:39:53;9.20;;;2.00;;
64244;SDS011;50584;29.058;-110.966;2023-03-14T05:42:18;10.43;;;2.25;;
64244;SDS011;50584;29.058;-110.966;2023-03-14T05:44:44;7.85;;;2.50;;
64244;SDS011;50584;29.058;-110.966;2023-03-14T05:47:10;5.28;;;2.30;;
64244;SDS011;50584;29.058;-110.966;2023-03-14T05:49:36;6.93;;;2.00;;
64244;SDS011;50584;29.058;-110.966;2023-03-14T05:52:02;13.02;;;2.30;;
64244;SDS011;50584;29.058;-110.966;2023-03-14T05:54:28;3.47;;;2.00;;
64244;SDS011;50584;29.058;-110.966;2023-03-14T05:56:54;5.72;;;2.22;;
64244;SDS011;50584;29.058;-110.966;2023-03-14T05:59:19;4.25;;;2.25;;
64244;SDS011;50584;29.058;-110.966;2023-03-14T06:01:45;4.10;;;1.80;;
64244;SDS011;50584;29.058;-110.966;2023-03-14T06:04:11;7.07;;;1.75;;
64244;SDS011;50584;29.058;-110.966;2023-03-14T06:06:37;2.17;;;1.55;;
64244;SDS011;50584;29.058;-110.966;2023-03-14T06:09:04;4.40;;;1.90;;
64244;SDS011;50584;29.058;-110.966;2023-03-14T06:11:30;7.03;;;1.90;;
64244;SDS011;50584;29.058;-110.966;2023-03-14T06:13:55;4.15;;;1.60;;
64244;SDS011;50584;29.058;-110.966;2023-03-14T06:16:21;3.67;;;1.60;;
64244;SDS011;50584;29.058;-110.966;2023-03-14T06:18:47;3.20;;;1.50;;
64244;SDS011;50584;29.058;-110.966;2023-03-14T06:21:14;1.50;;;1.33;;
64244;SDS011;50584;29.058;-110.966;2023-03-14T06:23:40;5.57;;;1.63;;
64244;SDS011;50584;29.058;-110.966;2023-03-14T06:26:06;5.25;;;1.30;;
64244;SDS011;50584;29.058;-110.966;2023-03-14T06:28:32;7.05;;;1.33;;
64244;SDS011;50584;29.058;-110.966;2023-03-14T06:30:58;2.05;;;1.23;;
64244;SDS011;50584;29.058;-110.966;2023-03-14T06:33:26;2.78;;;1.48;;
64244;SDS011;50584;29.058;-110.966;2023-03-14T06:35:52;4.18;;;1.30;;
64244;SDS011;50584;29.058;-110.966;2023-03-14T06:38:18;3.15;;;1.60;;
64244;SDS011;50584;29.058;-110.966;2023-03-14T06:40:43;1.95;;;1.50;;
64244;SDS011;50584;29.058;-110.966;2023-03-14T06:43:09;4.82;;;1.63;;
64244;SDS011;50584;29.058;-110.966;2023-03-14T06:45:35;3.47;;;2.08;;
64244;SDS011;50584;29.058;-110.966;2023-03-14T06:48:01;5.03;;;1.88;;
64244;SDS011;50584;29.058;-110.966;2023-03-14T06:50:27;7.47;;;1.90;;
64244;SDS011;50584;29.058;-110.966;2023-03-14T06:52:52;7.55;;;1.90;;
64244;SDS011;50584;29.058;-110.966;2023-03-14T06:55:18;7.82;;;1.70;;
64244;SDS011;50584;29.058;-110.966;2023-03-14T06:57:44;3.75;;;1.60;;
64244;SDS011;50584;29.058;-110.966;2023-03-14T07:00:11;6.13;;;1.70;;
64244;SDS011;50584;29.058;-110.966;2023-03-14T07:02:37;8.30;;;2.38;;
64244;SDS011;50584;29.058;-110.966;2023-03-14T07:05:03;15.10;;;2.58;;
64244;SDS011;50584;29.058;-110.966;2023-03-14T07:07:29;6.95;;;2.45;;
64244;SDS011;50584;29.058;-110.966;2023-03-14T07:09:55;2.67;;;2.15;;
64244;SDS011;50584;29.058;-110.966;2023-03-14T07:12:21;11.95;;;3.00;;
64244;SDS011;50584;29.058;-110.966;2023-03-14T07:14:47;4.85;;;2.95;;
64244;SDS011;50584;29.058;-110.966;2023-03-14T07:17:12;20.48;;;3.10;;
64244;SDS011;50584;29.058;-110.966;2023-03-14T07:19:38;9.90;;;3.25;;
64244;SDS011;50584;29.058;-110.966;2023-03-14T07:22:04;15.27;;;3.80;;
64244;SDS011;50584;29.058;-110.966;2023-03-14T07:24:30;12.00;;;3.70;;
64244;SDS011;50584;29.058;-110.966;2023-03-14T07:26:56;8.75;;;3.83;;
64244;SDS011;50584;29.058;-110.966;2023-03-14T07:29:22;15.40;;;3.25;;
64244;SDS011;50584;29.058;-110.966;2023-03-14T07:31:48;9.30;;;3.35;;
64244;SDS011;50584;29.058;-110.966;2023-03-14T07:34:13;8.90;;;3.40;;
64244;SDS011;50584;29.058;-110.966;2023-03-14T07:36:39;10.45;;;3.08;;
64244;SDS011;50584;29.058;-110.966;2023-03-14T07:39:05;7.05;;;3.08;;
64244;SDS011;50584;29.058;-110.966;2023-03-14T07:41:31;25.52;;;4.38;;
64244;SDS011;50584;29.058;-110.966;2023-03-14T07:43:57;9.43;;;4.22;;
64244;SDS011;50584;29.058;-110.966;2023-03-14T07:46:22;9.27;;;3.75;;
64244;SDS011;50584;29.058;-110.966;2023-03-14T07:48:48;12.50;;;4.13;;
64244;SDS011;50584;29.058;-110.966;2023-03-14T07:51:14;8.75;;;3.75;;
64244;SDS011;50584;29.058;-110.966;2023-03-14T07:53:40;13.95;;;4.00;;
64244;SDS011;50584;29.058;-110.966;2023-03-14T07:56:05;12.23;;;4.10;;
64244;SDS011;50584;29.058;-110.966;2023-03-14T07:58:31;18.17;;;4.28;;
64244;SDS011;50584;29.058;-110.966;2023-03-14T08:00:59;14.02;;;3.83;;
64244;SDS011;50584;29.058;-110.966;2023-03-14T08:03:25;8.75;;;4.30;;
64244;SDS011;50584;29.058;-110.966;2023-03-14T08:05:50;13.40;;;4.25;;
64244;SDS011;50584;29.058;-110.966;2023-03-14T08:08:16;9.45;;;3.88;;
64244;SDS011;50584;29.058;-110.966;2023-03-14T08:10:42;15.20;;;3.95;;
64244;SDS011;50584;29.058;-110.966;2023-03-14T08:13:08;10.50;;;3.78;;
64244;SDS011;50584;29.058;-110.966;2023-03-14T08:15:34;15.63;;;3.30;;
64244;SDS011;50584;29.058;-110.966;2023-03-14T08:18:00;9.98;;;3.13;;
64244;SDS011;50584;29.058;-110.966;2023-03-14T08:20:27;10.43;;;3.08;;
64244;SDS011;50584;29.058;-110.966;2023-03-14T08:22:57;4.28;;;3.00;;
64244;SDS011;50584;29.058;-110.966;2023-03-14T08:25:23;4.28;;;2.40;;
64244;SDS011;50584;29.058;-110.966;2023-03-14T08:27:49;7.35;;;2.60;;
64244;SDS011;50584;29.058;-110.966;2023-03-14T08:30:16;6.13;;;2.58;;
64244;SDS011;50584;29.058;-110.966;2023-03-14T08:32:41;3.15;;;2.35;;
64244;SDS011;50584;29.058;-110.966;2023-03-14T08:35:08;4.72;;;2.30;;
64244;SDS011;50584;29.058;-110.966;2023-03-14T08:37:34;3.38;;;2.10;;
64244;SDS011;50584;29.058;-110.966;2023-03-14T08:40:01;8.85;;;2.60;;
64244;SDS011;50584;29.058;-110.966;2023-03-14T08:42:30;5.78;;;2.20;;
64244;SDS011;50584;29.058;-110.966;2023-03-14T08:44:55;5.35;;;2.40;;
64244;SDS011;50584;29.058;-110.966;2023-03-14T08:47:21;3.25;;;2.00;;
64244;SDS011;50584;29.058;-110.966;2023-03-14T08:49:47;4.90;;;1.92;;
64244;SDS011;50584;29.058;-110.966;2023-03-14T08:52:13;6.43;;;2.05;;
64244;SDS011;50584;29.058;-110.966;2023-03-14T08:54:40;4.38;;;1.70;;
64244;SDS011;50584;29.058;-110.966;2023-03-14T08:57:05;6.80;;;2.00;;
64244;SDS011;50584;29.058;-110.966;2023-03-14T08:59:31;5.18;;;1.90;;
64244;SDS011;50584;29.058;-110.966;2023-03-14T09:01:57;2.95;;;2.22;;
64244;SDS011;50584;29.058;-110.966;2023-03-14T09:04:23;3.22;;;2.00;;
64244;SDS011;50584;29.058;-110.966;2023-03-14T09:06:48;5.03;;;1.80;;
64244;SDS011;50584;29.058;-110.966;2023-03-14T09:09:14;5.47;;;1.70;;
64244;SDS011;50584;29.058;-110.966;2023-03-14T09:11:40;7.28;;;1.98;;
64244;SDS011;50584;29.058;-110.966;2023-03-14T09:14:06;11.75;;;2.38;;
64244;SDS011;50584;29.058;-110.966;2023-03-14T09:16:33;6.18;;;1.58;;
64244;SDS011;50584;29.058;-110.966;2023-03-14T09:18:59;8.32;;;2.20;;
64244;SDS011;50584;29.058;-110.966;2023-03-14T09:21:25;3.72;;;1.60;;
64244;SDS011;50584;29.058;-110.966;2023-03-14T09:23:51;7.03;;;2.00;;
64244;SDS011;50584;29.058;-110.966;2023-03-14T09:26:17;4.45;;;2.20;;
64244;SDS011;50584;29.058;-110.966;2023-03-14T09:28:42;9.52;;;2.08;;
64244;SDS011;50584;29.058;-110.966;2023-03-14T09:31:09;9.00;;;1.88;;
64244;SDS011;50584;29.058;-110.966;2023-03-14T09:33:35;5.43;;;2.00;;
64244;SDS011;50584;29.058;-110.966;2023-03-14T09:36:01;6.38;;;1.80;;
64244;SDS011;50584;29.058;-110.966;2023-03-14T09:38:27;3.17;;;2.03;;
64244;SDS011;50584;29.058;-110.966;2023-03-14T09:40:53;4.00;;;1.90;;
64244;SDS011;50584;29.058;-110.966;2023-03-14T09:43:20;2.67;;;1.70;;
64244;SDS011;50584;29.058;-110.966;2023-03-14T09:45:48;4.15;;;1.73;;
64244;SDS011;50584;29.058;-110.966;2023-03-14T09:48:32;8.93;;;2.38;;
64244;SDS011;50584;29.058;-110.966;2023-03-14T09:50:59;5.93;;;2.05;;
64244;SDS011;50584;29.058;-110.966;2023-03-14T09:53:38;5.60;;;2.20;;
64244;SDS011;50584;29.058;-110.966;2023-03-14T09:56:04;3.25;;;2.10;;
64244;SDS011;50584;29.058;-110.966;2023-03-14T09:58:35;9.38;;;2.33;;
64244;SDS011;50584;29.058;-110.966;2023-03-14T10:01:01;7.95;;;2.35;;
64244;SDS011;50584;29.058;-110.966;2023-03-14T10:03:34;12.68;;;3.35;;
64244;SDS011;50584;29.058;-110.966;2023-03-14T10:05:59;9.00;;;2.70;;
64244;SDS011;50584;29.058;-110.966;2023-03-14T10:08:26;18.73;;;3.47;;
64244;SDS011;50584;29.058;-110.966;2023-03-14T10:10:51;11.32;;;3.35;;
64244;SDS011;50584;29.058;-110.966;2023-03-14T10:13:22;15.48;;;5.40;;
64244;SDS011;50584;29.058;-110.966;2023-03-14T10:18:22;8.18;;;2.28;;
64244;SDS011;50584;29.058;-110.966;2023-03-14T10:20:49;6.63;;;2.28;;
64244;SDS011;50584;29.058;-110.966;2023-03-14T10:23:24;9.32;;;2.70;;
64244;SDS011;50584;29.058;-110.966;2023-03-14T10:26:00;17.02;;;3.75;;
64244;SDS011;50584;29.058;-110.966;2023-03-14T10:28:27;13.27;;;3.88;;
64244;SDS011;50584;29.058;-110.966;2023-03-14T10:30:54;15.25;;;3.55;;
64244;SDS011;50584;29.058;-110.966;2023-03-14T10:33:24;17.70;;;3.45;;
64244;SDS011;50584;29.058;-110.966;2023-03-14T10:35:54;12.70;;;3.95;;
64244;SDS011;50584;29.058;-110.966;2023-03-14T10:38:22;16.92;;;4.25;;
64244;SDS011;50584;29.058;-110.966;2023-03-14T10:40:50;11.13;;;2.10;;
64244;SDS011;50584;29.058;-110.966;2023-03-14T10:43:19;12.20;;;2.47;;
64244;SDS011;50584;29.058;-110.966;2023-03-14T10:45:51;14.82;;;2.72;;
64244;SDS011;50584;29.058;-110.966;2023-03-14T10:53:21;10.98;;;2.40;;
64244;SDS011;50584;29.058;-110.966;2023-03-14T10:55:47;10.93;;;2.47;;
64244;SDS011;50584;29.058;-110.966;2023-03-14T10:58:23;7.57;;;2.42;;
64244;SDS011;50584;29.058;-110.966;2023-03-14T11:03:24;8.00;;;2.53;;
64244;SDS011;50584;29.058;-110.966;2023-03-14T11:06:25;8.85;;;2.42;;
64244;SDS011;50584;29.058;-110.966;2023-03-14T11:08:57;5.35;;;2.00;;
64244;SDS011;50584;29.058;-110.966;2023-03-14T11:11:30;4.50;;;2.08;;
64244;SDS011;50584;29.058;-110.966;2023-03-14T11:22:43;13.30;;;2.50;;
64244;SDS011;50584;29.058;-110.966;2023-03-14T11:29:40;10.55;;;2.63;;
64244;SDS011;50584;29.058;-110.966;2023-03-14T11:34:51;15.90;;;2.67;;
64244;SDS011;50584;29.058;-110.966;2023-03-14T11:39:59;6.38;;;2.17;;
64244;SDS011;50584;29.058;-110.966;2023-03-14T11:42:26;7.30;;;2.03;;
64244;SDS011;50584;29.058;-110.966;2023-03-14T11:44:52;7.30;;;2.25;;
64244;SDS011;50584;29.058;-110.966;2023-03-14T11:47:20;6.25;;;2.10;;
64244;SDS011;50584;29.058;-110.966;2023-03-14T11:53:16;7.50;;;2.40;;
64244;SDS011;50584;29.058;-110.966;2023-03-14T11:57:37;5.93;;;2.78;;
64244;SDS011;50584;29.058;-110.966;2023-03-14T12:00:18;7.68;;;2.50;;
64244;SDS011;50584;29.058;-110.966;2023-03-14T12:10:38;10.15;;;2.20;;
64244;SDS011;50584;29.058;-110.966;2023-03-14T12:13:07;2.13;;;1.92;;
64244;SDS011;50584;29.058;-110.966;2023-03-14T12:15:35;7.97;;;2.33;;
64244;SDS011;50584;29.058;-110.966;2023-03-14T12:18:02;4.78;;;1.83;;
64244;SDS011;50584;29.058;-110.966;2023-03-14T12:20:28;7.80;;;2.40;;
64244;SDS011;50584;29.058;-110.966;2023-03-14T12:22:55;2.65;;;2.05;;
64244;SDS011;50584;29.058;-110.966;2023-03-14T12:25:29;7.07;;;2.17;;
64244;SDS011;50584;29.058;-110.966;2023-03-14T12:35:36;3.22;;;2.20;;
64244;SDS011;50584;29.058;-110.966;2023-03-14T12:38:03;3.47;;;2.40;;
64244;SDS011;50584;29.058;-110.966;2023-03-14T12:40:30;5.47;;;1.90;;
64244;SDS011;50584;29.058;-110.966;2023-03-14T12:42:58;5.05;;;3.20;;
64244;SDS011;50584;29.058;-110.966;2023-03-14T12:45:31;12.10;;;5.65;;
64244;SDS011;50584;29.058;-110.966;2023-03-14T12:50:45;12.15;;;5.15;;
64244;SDS011;50584;29.058;-110.966;2023-03-14T12:53:32;15.23;;;4.15;;
64244;SDS011;50584;29.058;-110.966;2023-03-14T12:58:31;13.63;;;2.88;;
64244;SDS011;50584;29.058;-110.966;2023-03-14T13:01:02;4.38;;;2.25;;
64244;SDS011;50584;29.058;-110.966;2023-03-14T13:03:39;6.32;;;2.42;;
64244;SDS011;50584;29.058;-110.966;2023-03-14T13:06:08;5.15;;;1.63;;
64244;SDS011;50584;29.058;-110.966;2023-03-14T13:08:36;7.88;;;2.53;;
64244;SDS011;50584;29.058;-110.966;2023-03-14T13:11:20;6.53;;;2.10;;
64244;SDS011;50584;29.058;-110.966;2023-03-14T13:13:52;6.03;;;1.50;;
64244;SDS011;50584;29.058;-110.966;2023-03-14T13:16:19;3.38;;;1.60;;
64244;SDS011;50584;29.058;-110.966;2023-03-14T13:18:46;5.68;;;2.00;;
64244;SDS011;50584;29.058;-110.966;2023-03-14T13:23:38;4.75;;;1.40;;
64244;SDS011;50584;29.058;-110.966;2023-03-14T13:26:05;7.78;;;1.42;;
64244;SDS011;50584;29.058;-110.966;2023-03-14T13:28:31;2.08;;;1.60;;
64244;SDS011;50584;29.058;-110.966;2023-03-14T13:31:01;3.00;;;1.65;;
64244;SDS011;50584;29.058;-110.966;2023-03-14T13:33:27;6.22;;;1.70;;
64244;SDS011;50584;29.058;-110.966;2023-03-14T13:38:23;15.82;;;2.97;;
64244;SDS011;50584;29.058;-110.966;2023-03-14T13:40:50;4.47;;;2.08;;
64244;SDS011;50584;29.058;-110.966;2023-03-14T13:43:29;3.17;;;1.40;;
64244;SDS011;50584;29.058;-110.966;2023-03-14T13:48:49;66.43;;;21.40;;
64244;SDS011;50584;29.058;-110.966;2023-03-14T13:51:19;335.17;;;63.35;;
64244;SDS011;50584;29.058;-110.966;2023-03-14T13:53:55;192.18;;;41.00;;
64244;SDS011;50584;29.058;-110.966;2023-03-14T13:56:22;104.47;;;22.77;;
64244;SDS011;50584;29.058;-110.966;2023-03-14T13:58:48;122.38;;;28.35;;
64244;SDS011;50584;29.058;-110.966;2023-03-14T14:01:25;172.25;;;42.92;;
64244;SDS011;50584;29.058;-110.966;2023-03-14T14:03:53;182.32;;;36.90;;
64244;SDS011;50584;29.058;-110.966;2023-03-14T14:08:48;83.03;;;18.70;;
64244;SDS011;50584;29.058;-110.966;2023-03-14T14:11:18;144.48;;;27.77;;
64244;SDS011;50584;29.058;-110.966;2023-03-14T14:13:45;95.55;;;23.73;;
64244;SDS011;50584;29.058;-110.966;2023-03-14T14:16:11;59.33;;;12.57;;
64244;SDS011;50584;29.058;-110.966;2023-03-14T14:18:37;57.20;;;11.82;;
64244;SDS011;50584;29.058;-110.966;2023-03-14T14:21:03;23.63;;;6.68;;
64244;SDS011;50584;29.058;-110.966;2023-03-14T14:23:30;21.58;;;3.35;;
64244;SDS011;50584;29.058;-110.966;2023-03-14T14:25:57;8.38;;;2.80;;
64244;SDS011;50584;29.058;-110.966;2023-03-14T14:28:24;54.00;;;11.77;;
64244;SDS011;50584;29.058;-110.966;2023-03-14T14:31:02;41.92;;;10.32;;
64244;SDS011;50584;29.058;-110.966;2023-03-14T14:33:28;30.63;;;7.82;;
64244;SDS011;50584;29.058;-110.966;2023-03-14T14:35:58;36.75;;;9.77;;
64244;SDS011;50584;29.058;-110.966;2023-03-14T14:38:25;27.27;;;3.25;;
64244;SDS011;50584;29.058;-110.966;2023-03-14T14:40:53;23.20;;;4.68;;
64244;SDS011;50584;29.058;-110.966;2023-03-14T14:43:23;23.30;;;3.90;;
64244;SDS011;50584;29.058;-110.966;2023-03-14T14:45:50;28.33;;;4.03;;
64244;SDS011;50584;29.058;-110.966;2023-03-14T14:48:18;17.67;;;2.58;;
64244;SDS011;50584;29.058;-110.966;2023-03-14T14:53:26;6.20;;;2.05;;
64244;SDS011;50584;29.058;-110.966;2023-03-14T14:55:54;14.63;;;3.42;;
64244;SDS011;50584;29.058;-110.966;2023-03-14T14:58:27;21.73;;;3.50;;
64244;SDS011;50584;29.058;-110.966;2023-03-14T15:01:04;11.95;;;3.80;;
64244;SDS011;50584;29.058;-110.966;2023-03-14T15:03:31;17.85;;;4.32;;
64244;SDS011;50584;29.058;-110.966;2023-03-14T15:05:57;13.32;;;4.45;;
64244;SDS011;50584;29.058;-110.966;2023-03-14T15:08:26;8.25;;;3.22;;
64244;SDS011;50584;29.058;-110.966;2023-03-14T15:10:53;13.30;;;3.80;;
64244;SDS011;50584;29.058;-110.966;2023-03-14T15:13:19;11.27;;;4.05;;
64244;SDS011;50584;29.058;-110.966;2023-03-14T15:15:45;12.55;;;2.95;;
64244;SDS011;50584;29.058;-110.966;2023-03-14T15:18:15;8.65;;;2.70;;